Time,TemperatureF,DewpointF,PressureIn,WindDirection,WindDirectionDegrees,WindSpeedMPH,WindSpeedGustMPH,Humidity,HourlyPrecipIn,Conditions,Clouds,dailyrainin,SoftwareType,DateUTC
2013-06-16 00:43:00,71.0,56.0,28.31,South,177,0.0,0.0,59,0.00,,,0.00,,2013-06-16 05:43:00,
2013-06-16 00:52:00,71.0,56.0,28.31,South,177,0.0,0.0,59,0.00,,,0.00,,2013-06-16 05:52:00,
2013-06-16 01:01:00,71.0,56.0,28.31,South,177,0.0,0.0,59,0.00,,,0.00,,2013-06-16 06:01:00,
2013-06-16 01:11:00,71.0,59.0,28.34,South,177,0.0,0.0,66,0.00,,,0.00,,2013-06-16 06:11:00,
2013-06-16 01:22:00,71.0,59.0,28.34,South,177,0.0,0.0,66,0.00,,,0.00,,2013-06-16 06:22:00,
2013-06-16 01:33:00,70.0,59.0,28.34,South,177,0.0,0.0,67,0.00,,,0.00,,2013-06-16 06:33:00,
2013-06-16 01:43:00,70.0,59.0,28.34,South,177,0.0,0.0,67,0.00,,,0.00,,2013-06-16 06:43:00,
2013-06-16 01:52:00,70.0,59.0,28.34,South,177,0.0,0.0,68,0.00,,,0.00,,2013-06-16 06:52:00,
2013-06-16 02:01:00,70.0,59.0,28.34,South,177,0.0,0.0,69,0.00,,,0.00,,2013-06-16 07:01:00,
2013-06-16 02:11:00,70.0,59.0,28.37,South,177,0.0,0.0,69,0.00,,,0.00,,2013-06-16 07:11:00,
2013-06-16 02:22:00,70.0,59.0,28.37,South,177,0.0,0.0,69,0.00,,,0.00,,2013-06-16 07:22:00,
2013-06-16 02:32:00,70.0,60.0,28.37,South,177,0.0,0.0,70,0.00,,,0.00,,2013-06-16 07:32:00,
2013-06-16 02:43:00,70.0,60.0,28.37,South,177,0.0,0.0,71,0.00,,,0.00,,2013-06-16 07:43:00,
2013-06-16 02:53:00,70.0,60.0,28.37,South,177,0.0,0.0,71,0.00,,,0.00,,2013-06-16 07:53:00,
2013-06-16 03:02:00,70.0,60.0,28.37,South,177,0.0,0.0,71,0.00,,,0.00,,2013-06-16 08:02:00,
2013-06-16 03:11:00,70.0,60.0,28.37,South,177,0.0,0.0,71,0.00,,,0.00,,2013-06-16 08:11:00,
2013-06-16 03:22:00,70.0,60.0,28.40,South,177,0.0,0.0,71,0.00,,,0.00,,2013-06-16 08:22:00,
2013-06-16 03:34:00,70.0,60.0,28.40,South,177,0.0,0.0,71,0.00,,,0.00,,2013-06-16 08:34:00,
2013-06-16 03:43:00,70.0,60.0,28.40,South,177,0.0,0.0,71,0.00,,,0.00,,2013-06-16 08:43:00,
2013-06-16 03:54:00,70.0,62.0,28.37,WSW,255,2.0,4.0,75,0.00,,,0.00,,2013-06-16 08:54:00,
2013-06-16 04:01:00,70.0,62.0,28.37,WSW,255,2.0,4.0,75,0.00,,,0.00,,2013-06-16 09:01:00,
2013-06-16 04:11:00,71.0,60.0,28.37,WSW,239,3.0,7.0,69,0.00,,,0.00,,2013-06-16 09:11:00,
2013-06-16 04:22:00,72.0,60.0,28.37,SW,233,3.0,5.0,65,0.00,,,0.00,,2013-06-16 09:22:00,
2013-06-16 04:33:00,72.0,60.0,28.37,SW,233,3.0,5.0,65,0.00,,,0.00,,2013-06-16 09:33:00,
2013-06-16 04:42:00,73.0,61.0,28.37,WSW,237,3.0,8.0,65,0.00,,,0.00,,2013-06-16 09:42:00,
2013-06-16 04:52:00,72.0,60.0,28.37,SW,232,3.0,8.0,65,0.00,,,0.00,,2013-06-16 09:52:00,
2013-06-16 05:01:00,72.0,60.0,28.37,SW,232,3.0,8.0,65,0.00,,,0.00,,2013-06-16 10:01:00,
2013-06-16 05:12:00,72.0,60.0,28.37,SW,232,3.0,8.0,65,0.00,,,0.00,,2013-06-16 10:12:00,
2013-06-16 05:22:00,72.0,60.0,28.37,SW,232,3.0,8.0,65,0.00,,,0.00,,2013-06-16 10:22:00,
2013-06-16 05:43:00,71.0,59.0,28.34,WSW,237,0.0,0.0,65,0.00,,,0.00,,2013-06-16 10:43:00,
2013-06-16 05:54:00,71.0,59.0,28.34,SE,145,0.0,3.0,67,0.00,,,0.00,,2013-06-16 10:54:00,
2013-06-16 06:02:00,70.0,59.0,28.31,North,357,2.0,4.0,68,0.00,,,0.00,,2013-06-16 11:02:00,
2013-06-16 06:11:00,70.0,59.0,28.34,North,0,0.0,4.0,69,0.00,,,0.00,,2013-06-16 11:11:00,
2013-06-16 06:22:00,70.0,59.0,28.34,North,1,0.0,3.0,69,0.00,,,0.00,,2013-06-16 11:22:00,
2013-06-16 06:33:00,70.0,59.0,28.34,North,1,0.0,3.0,69,0.00,,,0.00,,2013-06-16 11:33:00,
2013-06-16 06:43:00,70.0,59.0,28.34,North,1,0.0,3.0,69,0.00,,,0.00,,2013-06-16 11:43:00,
2013-06-16 06:52:00,70.0,59.0,28.34,North,1,0.0,3.0,69,0.00,,,0.00,,2013-06-16 11:52:00,
2013-06-16 07:02:00,70.0,59.0,28.37,North,1,0.0,3.0,67,0.00,,,0.00,,2013-06-16 12:02:00,
2013-06-16 07:11:00,70.0,59.0,28.37,North,1,0.0,3.0,67,0.00,,,0.00,,2013-06-16 12:11:00,
2013-06-16 07:22:00,70.0,59.0,28.37,North,1,0.0,0.0,68,0.00,,,0.00,,2013-06-16 12:22:00,
2013-06-16 07:32:00,70.0,59.0,28.37,North,1,0.0,0.0,68,0.00,,,0.00,,2013-06-16 12:32:00,
2013-06-16 07:42:00,70.0,59.0,28.40,West,271,0.0,3.0,69,0.00,,,0.00,,2013-06-16 12:42:00,
2013-06-16 07:53:00,70.0,59.0,28.40,West,271,0.0,3.0,69,0.00,,,0.00,,2013-06-16 12:53:00,
2013-06-16 08:01:00,71.0,61.0,28.40,West,272,0.0,3.0,71,0.00,,,0.00,,2013-06-16 13:01:00,
2013-06-16 08:11:00,71.0,61.0,28.40,West,272,0.0,3.0,71,0.00,,,0.00,,2013-06-16 13:11:00,
2013-06-16 08:22:00,71.0,61.0,28.40,West,272,0.0,3.0,71,0.00,,,0.00,,2013-06-16 13:22:00,
2013-06-16 08:34:00,72.0,62.0,28.37,West,272,0.0,0.0,71,0.00,,,0.00,,2013-06-16 13:34:00,
2013-06-16 08:42:00,72.0,62.0,28.37,West,272,0.0,0.0,71,0.00,,,0.00,,2013-06-16 13:42:00,
2013-06-16 08:53:00,72.0,61.0,28.40,WSW,258,2.0,4.0,69,0.00,,,0.00,,2013-06-16 13:53:00,
2013-06-16 09:02:00,72.0,61.0,28.40,WSW,258,2.0,4.0,69,0.00,,,0.00,,2013-06-16 14:02:00,
2013-06-16 09:12:00,72.0,61.0,28.40,WSW,258,2.0,4.0,69,0.00,,,0.00,,2013-06-16 14:12:00,
2013-06-16 09:22:00,74.0,61.0,28.40,West,261,0.0,0.0,64,0.00,,,0.00,,2013-06-16 14:22:00,
2013-06-16 09:34:00,75.0,62.0,28.40,West,261,0.0,0.0,64,0.00,,,0.00,,2013-06-16 14:34:00,
2013-06-16 09:44:00,75.0,62.0,28.40,West,261,0.0,0.0,64,0.00,,,0.00,,2013-06-16 14:44:00,
2013-06-16 09:52:00,76.0,63.0,28.40,NW,325,2.0,3.0,64,0.00,,,0.00,,2013-06-16 14:52:00,
2013-06-16 10:02:00,77.0,65.0,28.40,North,11,0.0,5.0,67,0.00,,,0.00,,2013-06-16 15:02:00,
2013-06-16 10:12:00,77.0,65.0,28.40,NE,36,2.0,5.0,67,0.00,,,0.00,,2013-06-16 15:12:00,
2013-06-16 10:23:00,79.0,67.0,28.40,North,2,3.0,5.0,66,0.00,,,0.00,,2013-06-16 15:23:00,
2013-06-16 10:33:00,80.0,67.0,28.40,NW,307,2.0,5.0,64,0.00,,,0.00,,2013-06-16 15:33:00,
2013-06-16 10:43:00,81.0,68.0,28.40,North,11,2.0,7.0,65,0.00,,,0.00,,2013-06-16 15:43:00,
2013-06-16 10:52:00,81.0,68.0,28.40,North,11,2.0,7.0,65,0.00,,,0.00,,2013-06-16 15:52:00,
2013-06-16 11:01:00,82.0,68.0,28.40,North,353,3.0,7.0,62,0.00,,,0.00,,2013-06-16 16:01:00,
2013-06-16 11:12:00,82.0,67.0,28.40,North,357,0.0,7.0,61,0.00,,,0.00,,2013-06-16 16:12:00,
2013-06-16 11:22:00,82.0,67.0,28.40,North,357,0.0,7.0,61,0.00,,,0.00,,2013-06-16 16:22:00,
2013-06-16 11:33:00,83.0,67.0,28.40,North,353,5.0,7.0,59,0.00,,,0.00,,2013-06-16 16:33:00,
2013-06-16 11:43:00,83.0,67.0,28.40,North,353,5.0,7.0,59,0.00,,,0.00,,2013-06-16 16:43:00,
2013-06-16 11:53:00,83.0,67.0,28.40,North,353,5.0,7.0,59,0.00,,,0.00,,2013-06-16 16:53:00,
2013-06-16 12:02:00,84.0,68.0,28.40,North,353,0.0,7.0,59,0.00,,,0.00,,2013-06-16 17:02:00,
2013-06-16 12:11:00,84.0,67.0,28.40,North,4,2.0,8.0,57,0.00,,,0.00,,2013-06-16 17:11:00,
2013-06-16 12:22:00,84.0,67.0,28.40,NNW,344,3.0,8.0,57,0.00,,,0.00,,2013-06-16 17:22:00,
2013-06-16 12:34:00,85.0,67.0,28.40,North,2,7.0,8.0,55,0.00,,,0.00,,2013-06-16 17:34:00,
2013-06-16 12:43:00,85.0,68.0,28.40,East,95,2.0,8.0,56,0.00,,,0.00,,2013-06-16 17:43:00,
2013-06-16 12:53:00,85.0,66.0,28.40,North,0,0.0,8.0,54,0.00,,,0.00,,2013-06-16 17:53:00,
2013-06-16 13:02:00,86.0,66.0,28.40,North,1,2.0,8.0,51,0.00,,,0.00,,2013-06-16 18:02:00,
2013-06-16 13:12:00,86.0,68.0,28.40,ESE,110,0.0,8.0,55,0.00,,,0.00,,2013-06-16 18:12:00,
2013-06-16 13:22:00,87.0,68.0,28.40,NNE,29,0.0,7.0,53,0.00,,,0.00,,2013-06-16 18:22:00,
2013-06-16 13:33:00,87.0,67.0,28.40,NNE,29,3.0,8.0,51,0.00,,,0.00,,2013-06-16 18:33:00,
2013-06-16 13:43:00,87.0,67.0,28.40,NNE,29,3.0,8.0,51,0.00,,,0.00,,2013-06-16 18:43:00,
2013-06-16 13:52:00,87.0,65.0,28.40,NNE,30,3.0,8.0,49,0.00,,,0.00,,2013-06-16 18:52:00,
2013-06-16 14:01:00,87.0,65.0,28.40,NNE,30,3.0,8.0,49,0.00,,,0.00,,2013-06-16 19:01:00,
2013-06-16 14:11:00,88.0,65.0,28.40,ENE,73,3.0,8.0,47,0.00,,,0.00,,2013-06-16 19:11:00,
2013-06-16 14:22:00,88.0,63.0,28.40,NE,41,2.0,3.0,44,0.00,,,0.00,,2013-06-16 19:22:00,
2013-06-16 14:33:00,88.0,63.0,28.40,NE,41,2.0,3.0,44,0.00,,,0.00,,2013-06-16 19:33:00,
2013-06-16 14:43:00,88.0,63.0,28.40,NE,41,2.0,3.0,44,0.00,,,0.00,,2013-06-16 19:43:00,
2013-06-16 14:53:00,88.0,63.0,28.40,NE,41,2.0,3.0,44,0.00,,,0.00,,2013-06-16 19:53:00,
2013-06-16 15:02:00,88.0,63.0,28.40,NE,34,2.0,7.0,44,0.00,,,0.00,,2013-06-16 20:02:00,
2013-06-16 15:11:00,88.0,63.0,28.40,NE,34,2.0,7.0,44,0.00,,,0.00,,2013-06-16 20:11:00,
2013-06-16 15:22:00,90.0,61.0,28.37,SSE,160,2.0,3.0,38,0.00,,,0.00,,2013-06-16 20:22:00,
2013-06-16 15:33:00,90.0,60.0,28.37,North,9,2.0,4.0,37,0.00,,,0.00,,2013-06-16 20:33:00,
2013-06-16 15:42:00,90.0,60.0,28.37,North,9,2.0,4.0,37,0.00,,,0.00,,2013-06-16 20:42:00,
2013-06-16 15:53:00,90.0,60.0,28.37,North,9,2.0,4.0,37,0.00,,,0.00,,2013-06-16 20:53:00,
2013-06-16 16:01:00,87.0,59.0,28.37,East,81,0.0,5.0,39,0.00,,,0.00,,2013-06-16 21:01:00,
2013-06-16 16:11:00,87.0,59.0,28.37,East,81,0.0,5.0,39,0.00,,,0.00,,2013-06-16 21:11:00,
2013-06-16 16:22:00,87.0,60.0,28.37,North,5,3.0,5.0,40,0.00,,,0.00,,2013-06-16 21:22:00,
2013-06-16 16:32:00,87.0,60.0,28.37,North,357,0.0,5.0,40,0.00,,,0.00,,2013-06-16 21:32:00,
2013-06-16 16:42:00,87.0,59.0,28.34,NNE,13,0.0,5.0,39,0.00,,,0.00,,2013-06-16 21:42:00,
2013-06-16 16:53:00,87.0,59.0,28.34,NNE,16,0.0,5.0,39,0.00,,,0.00,,2013-06-16 21:53:00,
2013-06-16 17:01:00,87.0,60.0,28.34,NNE,16,3.0,5.0,40,0.00,,,0.00,,2013-06-16 22:01:00,
2013-06-16 17:12:00,87.0,59.0,28.34,East,88,0.0,5.0,39,0.00,,,0.00,,2013-06-16 22:12:00,
2013-06-16 17:22:00,87.0,59.0,28.34,North,8,3.0,3.0,39,0.00,,,0.00,,2013-06-16 22:22:00,
2013-06-16 17:32:00,87.0,58.0,28.34,North,357,0.0,3.0,38,0.00,,,0.00,,2013-06-16 22:32:00,
2013-06-16 17:42:00,87.0,59.0,28.34,NNE,16,2.0,7.0,39,0.00,,,0.00,,2013-06-16 22:42:00,
2013-06-16 17:52:00,87.0,58.0,28.34,North,11,2.0,7.0,38,0.00,,,0.00,,2013-06-16 22:52:00,
2013-06-16 18:01:00,86.0,58.0,28.34,North,357,0.0,7.0,39,0.00,,,0.00,,2013-06-16 23:01:00,
2013-06-16 18:11:00,87.0,58.0,28.31,SE,132,2.0,7.0,38,0.00,,,0.00,,2013-06-16 23:11:00,
2013-06-16 18:22:00,87.0,58.0,28.31,SE,132,2.0,7.0,38,0.00,,,0.00,,2013-06-16 23:22:00,
2013-06-16 18:32:00,87.0,58.0,28.31,North,2,0.0,5.0,38,0.00,,,0.00,,2013-06-16 23:32:00,
2013-06-16 18:42:00,87.0,58.0,28.31,East,87,0.0,5.0,37,0.00,,,0.00,,2013-06-16 23:42:00,
2013-06-16 18:51:00,87.0,60.0,28.31,NNE,22,2.0,7.0,40,0.00,,,0.00,,2013-06-16 23:51:00,
2013-06-16 19:02:00,87.0,60.0,28.31,NNE,18,6.0,7.0,40,0.00,,,0.00,,2013-06-17 00:02:00,
2013-06-16 19:11:00,86.0,60.0,28.31,NNE,23,3.0,7.0,41,0.00,,,0.00,,2013-06-17 00:11:00,
2013-06-16 19:22:00,86.0,60.0,28.31,East,101,2.0,5.0,42,0.00,,,0.00,,2013-06-17 00:22:00,
2013-06-16 19:32:00,86.0,60.0,28.31,East,101,2.0,5.0,42,0.00,,,0.00,,2013-06-17 00:32:00,
2013-06-16 19:42:00,85.0,61.0,28.31,NE,39,7.0,7.0,45,0.00,,,0.00,,2013-06-17 00:42:00,
2013-06-16 19:52:00,85.0,62.0,28.31,NE,41,3.0,8.0,47,0.00,,,0.00,,2013-06-17 00:52:00,
2013-06-16 20:02:00,85.0,62.0,28.31,NE,41,3.0,8.0,47,0.00,,,0.00,,2013-06-17 01:02:00,
2013-06-16 20:11:00,85.0,62.0,28.31,NE,41,3.0,8.0,47,0.00,,,0.00,,2013-06-17 01:11:00,
2013-06-16 20:22:00,82.0,65.0,28.31,North,0,2.0,9.0,57,0.00,,,0.00,,2013-06-17 01:22:00,
2013-06-16 20:32:00,82.0,65.0,28.31,North,0,2.0,9.0,57,0.00,,,0.00,,2013-06-17 01:32:00,
2013-06-16 20:43:00,82.0,65.0,28.31,North,0,2.0,9.0,57,0.00,,,0.00,,2013-06-17 01:43:00,
2013-06-16 20:53:00,80.0,65.0,28.34,NNW,334,5.0,11.0,61,0.00,,,0.00,,2013-06-17 01:53:00,
2013-06-16 21:02:00,80.0,65.0,28.34,NNW,334,5.0,11.0,61,0.00,,,0.00,,2013-06-17 02:02:00,
2013-06-16 21:12:00,80.0,65.0,28.34,NNW,334,5.0,11.0,61,0.00,,,0.00,,2013-06-17 02:12:00,
2013-06-16 21:22:00,79.0,66.0,28.37,North,5,3.0,4.0,64,0.00,,,0.00,,2013-06-17 02:22:00,
2013-06-16 21:34:00,78.0,65.0,28.37,North,6,3.0,7.0,64,0.00,,,0.00,,2013-06-17 02:34:00,
2013-06-16 21:43:00,78.0,66.0,28.37,NNE,30,3.0,7.0,66,0.00,,,0.00,,2013-06-17 02:43:00,
2013-06-16 21:53:00,78.0,66.0,28.37,NNE,30,3.0,7.0,66,0.00,,,0.00,,2013-06-17 02:53:00,
2013-06-16 22:02:00,77.0,64.0,28.37,North,357,5.0,8.0,65,0.00,,,0.00,,2013-06-17 03:02:00,
2013-06-16 22:12:00,77.0,64.0,28.37,North,357,5.0,8.0,65,0.00,,,0.00,,2013-06-17 03:12:00,
2013-06-16 22:22:00,77.0,64.0,28.37,North,357,5.0,8.0,65,0.00,,,0.00,,2013-06-17 03:22:00,
2013-06-16 22:33:00,76.0,64.0,28.37,North,11,3.0,8.0,67,0.00,,,0.00,,2013-06-17 03:33:00,
2013-06-16 22:44:00,76.0,65.0,28.37,NNE,31,5.0,9.0,69,0.00,,,0.00,,2013-06-17 03:44:00,
2013-06-16 22:54:00,76.0,65.0,28.37,NNE,31,5.0,9.0,69,0.00,,,0.00,,2013-06-17 03:54:00,
2013-06-16 23:02:00,76.0,65.0,28.37,NNE,31,5.0,9.0,69,0.00,,,0.00,,2013-06-17 04:02:00,
2013-06-16 23:12:00,76.0,65.0,28.37,NNE,31,5.0,9.0,69,0.00,,,0.00,,2013-06-17 04:12:00,
2013-06-16 23:22:00,76.0,65.0,28.37,NNE,31,5.0,9.0,69,0.00,,,0.00,,2013-06-17 04:22:00,
2013-06-16 23:34:00,75.0,65.0,28.40,NNE,27,7.0,9.0,72,0.00,,,0.00,,2013-06-17 04:34:00,
2013-06-16 23:43:00,75.0,65.0,28.40,NNE,27,7.0,9.0,72,0.00,,,0.00,,2013-06-17 04:43:00,
2013-06-16 23:53:00,75.0,65.0,28.37,NNE,16,2.0,9.0,72,0.00,,,0.00,,2013-06-17 04:53:00,